createdAt,value
2022-12-01T00:00:10.209Z,24.60
2022-12-01T00:02:43.148Z,26.05
2022-12-01T00:07:49.674Z,28.60
2022-12-01T00:10:27.290Z,26.83
2022-12-01T00:13:04.056Z,29.20
2022-12-01T00:15:38.140Z,25.73
2022-12-01T00:18:11.096Z,27.23
2022-12-01T00:20:43.960Z,25.38
2022-12-01T00:25:49.752Z,26.33
2022-12-01T00:31:00.698Z,26.08
2022-12-01T00:33:33.435Z,29.00
2022-12-01T00:36:07.524Z,25.85
2022-12-01T00:38:40.892Z,25.92
2022-12-01T00:41:13.685Z,25.23
2022-12-01T00:43:48.008Z,29.65
2022-12-01T00:46:21.228Z,24.23
2022-12-01T00:48:54.967Z,26.52
2022-12-01T00:51:28.264Z,24.85
2022-12-01T00:54:01.176Z,24.80
2022-12-01T00:56:34.213Z,25.55
2022-12-01T00:59:08.446Z,28.13
2022-12-01T01:01:41.911Z,26.33
2022-12-01T01:04:14.819Z,31.30
2022-12-01T01:06:47.732Z,26.35
2022-12-01T01:09:20.670Z,28.60
2022-12-01T01:14:27.778Z,29.83
2022-12-01T01:17:00.769Z,26.67
2022-12-01T01:22:06.253Z,27.43
2022-12-01T01:24:39.232Z,28.55
2022-12-01T01:27:12.216Z,33.00
2022-12-01T01:29:47.156Z,37.15
2022-12-01T01:32:20.211Z,37.22
2022-12-01T01:34:53.120Z,35.25
2022-12-01T01:37:25.831Z,37.00
2022-12-01T01:39:58.603Z,38.35
2022-12-01T01:42:31.923Z,42.92
2022-12-01T01:45:20.807Z,40.22
2022-12-01T01:47:56.687Z,40.33
2022-12-01T01:50:30.048Z,40.13
2022-12-01T01:53:06.650Z,43.25
2022-12-01T01:55:39.760Z,41.83
2022-12-01T01:58:13.609Z,40.42
2022-12-01T02:00:48.429Z,44.38
2022-12-01T02:03:22.878Z,46.78
2022-12-01T02:06:00.517Z,48.90
2022-12-01T02:08:38.225Z,45.55
2022-12-01T02:11:26.982Z,46.63
2022-12-01T02:14:10.941Z,46.28
2022-12-01T02:16:52.043Z,45.42
2022-12-01T02:19:56.185Z,45.15
2022-12-01T02:22:37.572Z,43.80
2022-12-01T02:25:36.270Z,45.42
2022-12-01T02:28:27.382Z,46.38
2022-12-01T02:31:09.350Z,45.38
2022-12-01T02:33:50.121Z,42.75
2022-12-01T02:36:32.666Z,44.35
2022-12-01T02:39:10.397Z,35.65
2022-12-01T02:41:49.416Z,43.47
2022-12-01T02:44:30.171Z,43.45
2022-12-01T02:47:11.346Z,42.60
2022-12-01T02:49:48.811Z,50.90
2022-12-01T02:52:24.829Z,44.90
2022-12-01T02:54:58.053Z,43.45
2022-12-01T02:57:32.115Z,41.50
2022-12-01T03:00:13.626Z,41.67
2022-12-01T03:03:02.461Z,40.25
2022-12-01T03:05:44.050Z,45.28
2022-12-01T03:08:26.288Z,41.92
2022-12-01T03:11:00.651Z,41.58
2022-12-01T03:13:40.146Z,45.75
2022-12-01T03:16:16.978Z,39.03
2022-12-01T03:18:57.548Z,44.13
2022-12-01T03:21:36.098Z,42.55
2022-12-01T03:24:14.891Z,39.28
2022-12-01T03:26:51.818Z,44.75
2022-12-01T03:29:27.968Z,46.00
2022-12-01T03:32:04.615Z,45.05
2022-12-01T03:34:46.425Z,42.25
2022-12-01T03:37:23.552Z,45.90
2022-12-01T03:40:00.471Z,45.90
2022-12-01T03:42:38.656Z,43.97
2022-12-01T03:45:18.953Z,45.85
2022-12-01T03:47:51.957Z,41.28
2022-12-01T03:53:09.696Z,41.33
2022-12-01T03:55:45.422Z,43.22
2022-12-01T03:58:21.901Z,46.30
2022-12-01T04:00:57.943Z,46.58
2022-12-01T04:03:30.742Z,49.13
2022-12-01T04:06:05.777Z,47.10
2022-12-01T04:08:38.829Z,52.58
2022-12-01T04:16:38.387Z,48.83
2022-12-01T04:19:12.176Z,50.28
2022-12-01T04:21:46.207Z,52.53
2022-12-01T04:24:18.932Z,48.45
2022-12-01T04:26:51.838Z,53.67
2022-12-01T04:31:57.392Z,50.50
2022-12-01T04:34:30.480Z,48.03
2022-12-01T04:37:06.157Z,47.78
2022-12-01T04:39:39.098Z,51.20
2022-12-01T04:44:44.786Z,50.90
2022-12-01T04:49:50.562Z,48.50
2022-12-01T04:52:25.009Z,51.72
2022-12-01T04:54:57.953Z,48.05
2022-12-01T04:57:30.738Z,47.97
2022-12-01T05:00:03.651Z,51.20
2022-12-01T05:05:09.691Z,50.28
2022-12-01T05:07:44.115Z,48.55
2022-12-01T05:10:19.048Z,46.30
2022-12-01T05:12:52.152Z,51.67
2022-12-01T05:15:25.652Z,45.40
2022-12-01T05:17:58.445Z,46.75
2022-12-01T05:20:48.931Z,43.17
2022-12-01T05:23:23.015Z,44.50
2022-12-01T05:25:56.241Z,45.50
2022-12-01T05:28:29.885Z,43.03
2022-12-01T05:31:02.725Z,43.85
2022-12-01T05:33:35.479Z,47.08
2022-12-01T05:36:08.871Z,43.47
2022-12-01T05:38:42.991Z,44.53
2022-12-01T05:41:16.314Z,48.30
2022-12-01T05:43:49.309Z,43.90
2022-12-01T05:48:54.597Z,45.03
2022-12-01T05:51:27.540Z,46.70
2022-12-01T05:56:34.680Z,48.08
2022-12-01T05:59:07.620Z,41.08
2022-12-01T06:04:13.352Z,48.70
2022-12-01T06:06:46.159Z,44.15
2022-12-01T06:09:20.309Z,45.40
2022-12-01T06:11:52.949Z,44.67
2022-12-01T06:14:25.716Z,42.58
2022-12-01T06:16:58.601Z,44.20
2022-12-01T06:19:31.721Z,41.95
2022-12-01T06:24:39.041Z,43.45
2022-12-01T06:27:11.747Z,51.63
2022-12-01T06:29:44.532Z,51.42
2022-12-01T06:32:17.560Z,51.13
2022-12-01T06:37:22.900Z,63.03
2022-12-01T06:39:57.160Z,59.08
2022-12-01T06:42:31.585Z,53.42
2022-12-01T06:45:04.471Z,51.92
2022-12-01T06:47:37.383Z,51.80
2022-12-01T06:52:44.892Z,55.08
2022-12-01T06:57:52.095Z,57.72
2022-12-01T07:05:39.147Z,54.67
2022-12-01T07:08:12.492Z,55.55
2022-12-01T07:10:46.900Z,61.13
2022-12-01T07:13:19.895Z,57.28
2022-12-01T07:18:25.649Z,59.60
2022-12-01T07:21:01.015Z,60.35
2022-12-01T07:23:35.150Z,58.25
2022-12-01T07:26:12.674Z,57.95
2022-12-01T07:28:46.109Z,63.83
2022-12-01T07:31:20.705Z,57.95
2022-12-01T07:33:53.662Z,58.63
2022-12-01T07:38:59.079Z,57.80
2022-12-01T07:41:33.242Z,61.20
2022-12-01T07:44:06.195Z,58.97
2022-12-01T07:49:15.065Z,60.25
2022-12-01T07:51:47.825Z,61.00
2022-12-01T07:54:21.326Z,62.88
2022-12-01T07:56:55.466Z,63.00
2022-12-01T07:59:28.175Z,59.90
2022-12-01T08:02:01.018Z,62.55
2022-12-01T08:04:33.902Z,60.85
2022-12-01T08:07:06.860Z,61.53
2022-12-01T08:12:14.971Z,64.75
2022-12-01T08:14:47.746Z,60.78
2022-12-01T08:17:20.882Z,57.10
2022-12-01T08:19:53.550Z,62.63
2022-12-01T08:22:26.308Z,66.28
2022-12-01T08:24:58.983Z,72.15
2022-12-01T08:27:33.360Z,67.20
2022-12-01T08:30:07.665Z,64.43
2022-12-01T08:32:40.422Z,63.60
2022-12-01T08:35:13.430Z,64.28
2022-12-01T08:37:46.343Z,65.57
2022-12-01T08:40:19.335Z,67.20
2022-12-01T08:45:28.436Z,67.50
2022-12-01T08:50:34.110Z,75.32
2022-12-01T08:55:39.353Z,69.80
2022-12-01T08:58:13.497Z,67.72
2022-12-01T09:00:46.354Z,79.97
2022-12-01T09:03:19.131Z,71.57
2022-12-01T09:05:51.895Z,62.60
2022-12-01T09:08:35.231Z,65.50
2022-12-01T09:11:12.533Z,62.83
2022-12-01T09:13:54.323Z,65.80
2022-12-01T09:16:27.727Z,72.97
2022-12-01T09:19:00.561Z,74.18
2022-12-01T09:21:36.917Z,68.82
2022-12-01T09:24:12.328Z,67.30
2022-12-01T09:26:45.133Z,72.50
2022-12-01T09:29:19.809Z,66.38
2022-12-01T09:31:52.771Z,77.85
2022-12-01T09:36:59.344Z,52.90
2022-12-01T09:39:35.073Z,72.15
2022-12-01T09:42:13.898Z,85.22
2022-12-01T09:44:52.293Z,70.90
2022-12-01T09:47:30.240Z,74.95
2022-12-01T09:50:06.954Z,75.63
2022-12-01T09:52:44.776Z,72.50
2022-12-01T09:55:19.281Z,72.45
2022-12-01T09:57:55.202Z,73.95
2022-12-01T10:00:32.939Z,71.80
2022-12-01T10:03:17.784Z,73.45
2022-12-01T10:08:53.355Z,79.88
2022-12-01T10:11:32.705Z,78.57
2022-12-01T10:14:17.936Z,74.18
2022-12-01T10:17:04.654Z,76.45
2022-12-01T10:19:43.634Z,79.63
2022-12-01T10:22:49.228Z,77.53
2022-12-01T10:25:24.384Z,75.68
2022-12-01T10:28:12.098Z,74.78
2022-12-01T10:30:50.936Z,81.82
2022-12-01T10:33:26.562Z,81.13
2022-12-01T10:35:59.715Z,79.88
2022-12-01T10:38:36.191Z,75.07
2022-12-01T10:41:15.646Z,71.88
2022-12-01T10:43:51.364Z,74.13
2022-12-01T10:46:31.015Z,73.15
2022-12-01T10:49:11.793Z,70.07
2022-12-01T10:51:53.093Z,66.38
2022-12-01T10:54:34.613Z,67.47
2022-12-01T10:57:14.832Z,68.63
2022-12-01T10:59:52.982Z,68.50
2022-12-01T11:02:29.727Z,65.38
2022-12-01T11:05:08.201Z,66.63
2022-12-01T11:07:46.313Z,70.25
2022-12-01T11:10:22.090Z,63.65
2022-12-01T11:12:58.606Z,67.95
2022-12-01T11:15:34.427Z,66.88
2022-12-01T11:18:21.337Z,73.40
2022-12-01T11:21:09.192Z,65.90
2022-12-01T11:23:47.110Z,71.93
2022-12-01T11:26:22.528Z,69.13
2022-12-01T11:28:58.877Z,72.70
2022-12-01T11:31:39.542Z,69.50
2022-12-01T11:34:20.216Z,62.63
2022-12-01T11:36:57.304Z,69.07
2022-12-01T11:39:33.448Z,70.47
2022-12-01T11:42:13.311Z,67.97
2022-12-01T11:44:52.241Z,73.85
2022-12-01T11:47:27.595Z,69.43
2022-12-01T11:50:02.194Z,61.88
2022-12-01T11:52:46.459Z,66.10
2022-12-01T11:55:24.947Z,62.90
2022-12-01T11:58:00.876Z,65.45
2022-12-01T12:00:44.566Z,65.93
2022-12-01T12:03:28.148Z,65.43
2022-12-01T12:09:24.091Z,66.53
2022-12-01T12:12:08.783Z,70.15
2022-12-01T12:14:53.827Z,64.40
2022-12-01T12:17:40.074Z,68.88
2022-12-01T12:20:30.285Z,68.05
2022-12-01T12:23:27.070Z,58.72
2022-12-01T12:26:08.272Z,63.13
2022-12-01T12:28:54.996Z,67.18
2022-12-01T12:31:35.536Z,60.05
2022-12-01T12:34:22.945Z,61.30
2022-12-01T12:37:08.769Z,58.95
2022-12-01T12:40:01.421Z,57.95
2022-12-01T12:42:48.878Z,65.70
2022-12-01T12:45:30.164Z,59.30
2022-12-01T12:48:16.285Z,61.97
2022-12-01T12:50:59.183Z,61.17
2022-12-01T12:53:41.299Z,62.60
2022-12-01T12:56:18.398Z,59.13
2022-12-01T12:58:58.580Z,58.55
2022-12-01T13:01:38.006Z,57.13
2022-12-01T13:04:15.104Z,56.70
2022-12-01T13:06:54.018Z,58.17
2022-12-01T13:09:35.036Z,53.47
2022-12-01T13:12:15.742Z,54.72
2022-12-01T13:15:00.662Z,54.45
2022-12-01T13:17:38.515Z,58.33
2022-12-01T13:20:15.990Z,57.28
2022-12-01T13:22:50.274Z,53.25
2022-12-01T13:25:27.794Z,49.10
2022-12-01T13:28:08.609Z,55.83
2022-12-01T13:30:42.871Z,56.38
2022-12-01T13:33:17.372Z,51.70
2022-12-01T13:36:21.338Z,51.65
2022-12-01T13:38:58.263Z,52.05
2022-12-01T13:41:34.257Z,49.95
2022-12-01T13:44:10.025Z,48.90
2022-12-01T13:47:00.035Z,50.65
2022-12-01T13:49:41.931Z,50.85
2022-12-01T13:52:29.293Z,51.13
2022-12-01T13:55:18.862Z,49.65
2022-12-01T13:58:42.010Z,49.80
2022-12-01T14:01:43.665Z,46.97
2022-12-01T14:04:29.336Z,50.15
2022-12-01T14:07:33.864Z,55.88
2022-12-01T14:10:25.025Z,53.33
2022-12-01T14:13:03.022Z,57.08
2022-12-01T14:15:42.528Z,49.85
2022-12-01T14:18:28.469Z,51.28
2022-12-01T14:21:04.578Z,48.05
2022-12-01T14:23:41.234Z,60.97
2022-12-01T14:26:19.757Z,51.58
2022-12-01T14:29:27.253Z,53.00
2022-12-01T14:32:21.509Z,51.58
2022-12-01T14:34:57.037Z,48.70
2022-12-01T14:37:44.944Z,53.90
2022-12-01T14:40:29.153Z,47.42
2022-12-01T14:43:20.546Z,53.13
2022-12-01T14:46:02.798Z,47.83
2022-12-01T14:48:40.283Z,39.60
2022-12-01T14:51:22.098Z,46.17
2022-12-01T14:53:58.160Z,47.15
2022-12-01T14:56:34.071Z,53.00
2022-12-01T14:59:20.023Z,56.85
2022-12-01T15:01:56.064Z,49.10
2022-12-01T15:04:28.869Z,46.25
2022-12-01T15:07:01.740Z,45.38
2022-12-01T15:12:28.785Z,44.50
2022-12-01T15:15:18.767Z,47.10
2022-12-01T15:17:57.668Z,49.80
2022-12-01T15:20:33.140Z,49.25
2022-12-01T15:23:14.230Z,45.45
2022-12-01T15:25:48.475Z,48.67
2022-12-01T15:28:23.212Z,48.00
2022-12-01T15:30:59.703Z,40.20
2022-12-01T15:33:37.415Z,44.60
2022-12-01T15:36:10.642Z,39.25
2022-12-01T15:38:47.087Z,40.80
2022-12-01T15:41:31.335Z,42.90
2022-12-01T15:44:05.466Z,44.22
2022-12-01T15:46:38.384Z,40.20
2022-12-01T15:49:18.942Z,37.80
2022-12-01T15:51:53.280Z,40.15
2022-12-01T15:54:27.824Z,36.20
2022-12-01T15:57:03.723Z,35.95
2022-12-01T15:59:44.293Z,36.53
2022-12-01T16:02:29.321Z,38.92
2022-12-01T16:05:05.839Z,32.15
2022-12-01T16:08:11.383Z,36.33
2022-12-01T16:13:45.326Z,36.45
2022-12-01T16:16:29.532Z,38.10
2022-12-01T16:19:05.750Z,35.78
2022-12-01T16:21:55.340Z,34.25
2022-12-01T16:24:32.110Z,39.28
2022-12-01T16:27:06.631Z,33.65
2022-12-01T16:29:50.393Z,30.33
2022-12-01T16:32:27.687Z,32.55
2022-12-01T16:35:01.032Z,34.45
2022-12-01T16:37:36.724Z,33.53
2022-12-01T16:40:11.861Z,32.08
2022-12-01T16:42:44.799Z,31.92
2022-12-01T16:47:52.543Z,29.60
2022-12-01T16:50:25.420Z,33.38
2022-12-01T16:55:38.909Z,31.60
2022-12-01T16:58:11.839Z,33.58
2022-12-01T17:00:52.682Z,34.33
2022-12-01T17:03:28.682Z,29.60
2022-12-01T17:06:03.379Z,32.35
2022-12-01T17:08:36.437Z,28.10
2022-12-01T17:11:10.182Z,31.00
2022-12-01T17:13:43.082Z,32.30
2022-12-01T17:16:18.901Z,28.52
2022-12-01T17:18:52.127Z,29.27
2022-12-01T17:23:57.616Z,29.23
2022-12-01T17:26:30.500Z,28.15
2022-12-01T17:31:37.797Z,26.67
2022-12-01T17:34:10.749Z,28.27
2022-12-01T17:36:43.854Z,30.45
2022-12-01T17:39:16.804Z,27.83
2022-12-01T17:44:30.584Z,26.55
2022-12-01T17:47:05.564Z,26.63
2022-12-01T17:49:39.355Z,24.23
2022-12-01T17:52:15.067Z,28.40
2022-12-01T17:54:48.509Z,29.02
2022-12-01T17:57:23.459Z,28.02
2022-12-01T17:59:56.425Z,23.02
2022-12-01T18:05:04.046Z,26.85
2022-12-01T18:07:37.208Z,24.83
2022-12-01T18:10:16.429Z,26.67
2022-12-01T18:12:49.301Z,25.30
2022-12-01T18:15:22.105Z,28.33
2022-12-01T18:17:57.917Z,24.63
2022-12-01T18:20:33.749Z,22.73
2022-12-01T18:23:06.782Z,24.60
2022-12-01T18:28:17.021Z,26.30
2022-12-01T18:30:50.076Z,25.02
2022-12-01T18:33:25.724Z,26.35
2022-12-01T18:35:58.755Z,24.55
2022-12-01T18:43:45.152Z,27.38
2022-12-01T18:46:19.835Z,27.77
2022-12-01T18:49:00.476Z,26.15
2022-12-01T18:51:35.597Z,28.08
2022-12-01T18:54:11.909Z,27.60
2022-12-01T18:56:44.753Z,25.13
2022-12-01T18:59:18.582Z,27.63
2022-12-01T19:01:52.429Z,27.23
2022-12-01T19:04:28.893Z,30.15
2022-12-01T19:07:01.860Z,25.98
2022-12-01T19:09:34.649Z,27.40
2022-12-01T19:12:08.095Z,27.27
2022-12-01T19:14:40.878Z,25.20
2022-12-01T19:19:48.722Z,26.77
2022-12-01T19:22:23.724Z,25.40
2022-12-01T19:24:57.576Z,27.00
2022-12-01T19:27:31.211Z,26.52
2022-12-01T19:30:10.165Z,27.55
2022-12-01T19:32:47.823Z,28.23
2022-12-01T19:35:24.745Z,26.00
2022-12-01T19:38:03.424Z,23.45
2022-12-01T19:40:46.178Z,26.58
2022-12-01T19:45:55.324Z,19.65
2022-12-01T19:48:28.748Z,28.27
2022-12-01T19:51:03.605Z,28.15
2022-12-01T19:53:38.694Z,25.48
2022-12-01T19:56:12.028Z,26.63
2022-12-01T19:58:44.956Z,24.65
2022-12-01T20:01:19.269Z,28.65
2022-12-01T20:03:53.991Z,26.52
2022-12-01T20:06:30.908Z,26.30
2022-12-01T20:09:06.093Z,23.35
2022-12-01T20:11:38.895Z,26.02
2022-12-01T20:14:12.003Z,25.33
2022-12-01T20:16:44.747Z,26.88
2022-12-01T20:19:17.580Z,28.55
2022-12-01T20:21:51.849Z,27.63
2022-12-01T20:24:25.395Z,31.60
2022-12-01T20:27:00.551Z,25.42
2022-12-01T20:29:33.694Z,27.10
2022-12-01T20:32:07.129Z,24.63
2022-12-01T20:34:39.956Z,25.55
2022-12-01T20:37:14.270Z,27.88
2022-12-01T20:39:47.518Z,27.73
2022-12-01T20:42:22.976Z,28.90
2022-12-01T20:45:11.422Z,31.45
2022-12-01T20:47:57.994Z,26.55
2022-12-01T20:50:31.055Z,30.40
2022-12-01T20:55:48.603Z,26.98
2022-12-01T20:58:21.745Z,28.95
2022-12-01T21:03:27.367Z,31.95
2022-12-01T21:08:34.297Z,32.17
2022-12-01T21:11:09.506Z,27.00
2022-12-01T21:13:44.436Z,27.70
2022-12-01T21:16:24.026Z,29.95
2022-12-01T21:19:01.127Z,29.27
2022-12-01T21:21:39.903Z,28.25
2022-12-01T21:24:17.086Z,25.45
2022-12-01T21:26:54.858Z,24.77
2022-12-01T21:29:29.961Z,29.13
2022-12-01T21:32:13.323Z,29.00
2022-12-01T21:34:48.120Z,25.90
2022-12-01T21:37:23.540Z,27.55
2022-12-01T21:39:58.335Z,25.17
2022-12-01T21:42:32.357Z,30.63
2022-12-01T21:45:15.920Z,29.05
2022-12-01T21:47:48.737Z,29.45
2022-12-01T21:50:24.935Z,29.98
2022-12-01T21:52:59.079Z,27.77
2022-12-01T21:55:36.169Z,29.35
2022-12-01T21:58:34.570Z,25.90
2022-12-01T22:01:17.967Z,26.25
2022-12-01T22:03:51.563Z,26.95
2022-12-01T22:06:30.564Z,27.35
2022-12-01T22:09:15.443Z,27.10
2022-12-01T22:11:53.905Z,28.85
2022-12-01T22:14:30.160Z,25.70
2022-12-01T22:17:17.631Z,26.67
2022-12-01T22:19:57.881Z,27.02
2022-12-01T22:22:32.670Z,27.40
2022-12-01T22:25:23.577Z,33.30
2022-12-01T22:28:01.269Z,30.77
2022-12-01T22:30:35.709Z,29.75
2022-12-01T22:33:20.127Z,26.52
2022-12-01T22:35:53.910Z,26.88
2022-12-01T22:38:32.967Z,28.42
2022-12-01T22:41:07.466Z,29.23
2022-12-01T22:43:47.043Z,24.65
2022-12-01T22:46:28.817Z,28.77
2022-12-01T22:49:14.219Z,28.50
2022-12-01T22:51:50.162Z,28.23
2022-12-01T22:54:30.492Z,29.13
2022-12-01T22:57:09.511Z,28.45
2022-12-01T22:59:45.198Z,27.40
2022-12-01T23:02:24.659Z,28.35
2022-12-01T23:05:00.865Z,25.25
2022-12-01T23:07:35.507Z,27.77
2022-12-01T23:10:13.899Z,29.40
2022-12-01T23:12:48.754Z,27.15
2022-12-01T23:15:30.113Z,28.52
2022-12-01T23:18:12.728Z,27.90
2022-12-01T23:20:48.019Z,24.38
2022-12-01T23:23:22.699Z,29.08
2022-12-01T23:25:55.733Z,29.52
2022-12-01T23:28:30.929Z,29.65
2022-12-01T23:31:07.916Z,32.92
2022-12-01T23:33:40.666Z,34.28
2022-12-01T23:36:17.597Z,28.48
2022-12-01T23:38:52.996Z,30.00
2022-12-01T23:41:35.246Z,29.35
2022-12-01T23:44:16.680Z,27.30
2022-12-01T23:46:53.378Z,32.00
2022-12-01T23:49:30.642Z,29.88
2022-12-01T23:52:05.050Z,32.03
2022-12-01T23:54:39.716Z,35.03
2022-12-01T23:57:18.214Z,32.53
2022-12-01T23:59:54.045Z,29.10
